Lebanon, Tennessee
Current Conditions -  °F | °C
As of 1:53 PM on Wednesday 26 Nov 2014 (Local Time) from KBNA Reporting Station
Broken Clouds Broken Clouds  
Wind Chill: 50°   Ceiling: 20000
Heat Index: 50°   Visibility: 10mi
Dew Point: 21°   Wind: 5mph
Humidity: 32%   Direction: NA
Pressure: 30.05"   Gusts: NA
Location:  36.21°N, 86.29°W
Report Text: KBNA 261953Z VRB04KT 10SM SCT120 BKN200 BKN250 10/M06 A3005 RMK AO2 SLP178 T01001061
Loading
Personal Weather Stations






























Interactive Weather Map New forecast layout! Learn more

10-Day Weather Forecast

Advertisements
Track Severe Weather on mobile